sensor_id;sensor_type;location;lat;lon;timestamp;P1;durP1;ratioP1;P2;durP2;ratioP2
13366;SDS011;6752;52.612;13.630;2023-02-15T00:02:48;103.40;;;50.45;;
13366;SDS011;6752;52.612;13.630;2023-02-15T00:07:50;73.82;;;44.83;;
13366;SDS011;6752;52.612;13.630;2023-02-15T00:12:53;60.47;;;48.30;;
13366;SDS011;6752;52.612;13.630;2023-02-15T00:17:56;69.80;;;42.83;;
13366;SDS011;6752;52.612;13.630;2023-02-15T00:22:58;65.05;;;39.03;;
13366;SDS011;6752;52.612;13.630;2023-02-15T00:28:00;84.82;;;47.75;;
13366;SDS011;6752;52.612;13.630;2023-02-15T00:33:02;70.03;;;42.92;;
13366;SDS011;6752;52.612;13.630;2023-02-15T00:38:05;69.12;;;41.45;;
13366;SDS011;6752;52.612;13.630;2023-02-15T00:43:07;65.22;;;39.92;;
13366;SDS011;6752;52.612;13.630;2023-02-15T00:48:09;56.35;;;36.97;;
13366;SDS011;6752;52.612;13.630;2023-02-15T00:53:13;53.35;;;34.67;;
13366;SDS011;6752;52.612;13.630;2023-02-15T00:58:15;48.10;;;30.65;;
13366;SDS011;6752;52.612;13.630;2023-02-15T01:03:18;45.70;;;30.67;;
13366;SDS011;6752;52.612;13.630;2023-02-15T01:08:20;48.22;;;31.12;;
13366;SDS011;6752;52.612;13.630;2023-02-15T01:13:22;47.83;;;30.52;;
13366;SDS011;6752;52.612;13.630;2023-02-15T01:18:25;48.85;;;31.75;;
13366;SDS011;6752;52.612;13.630;2023-02-15T01:23:27;55.83;;;32.67;;
13366;SDS011;6752;52.612;13.630;2023-02-15T01:28:30;52.42;;;30.90;;
13366;SDS011;6752;52.612;13.630;2023-02-15T01:33:32;55.38;;;34.20;;
13366;SDS011;6752;52.612;13.630;2023-02-15T01:38:35;70.87;;;42.28;;
13366;SDS011;6752;52.612;13.630;2023-02-15T01:43:40;65.28;;;37.78;;
13366;SDS011;6752;52.612;13.630;2023-02-15T01:48:46;61.50;;;35.92;;
13366;SDS011;6752;52.612;13.630;2023-02-15T01:58:49;74.53;;;41.58;;
13366;SDS011;6752;52.612;13.630;2023-02-15T02:03:56;71.78;;;38.72;;
13366;SDS011;6752;52.612;13.630;2023-02-15T02:09:03;69.28;;;38.47;;
13366;SDS011;6752;52.612;13.630;2023-02-15T02:14:05;72.10;;;50.55;;
13366;SDS011;6752;52.612;13.630;2023-02-15T02:24:25;97.43;;;49.55;;
13366;SDS011;6752;52.612;13.630;2023-02-15T02:40:25;85.07;;;44.45;;
13366;SDS011;6752;52.612;13.630;2023-02-15T02:45:28;98.10;;;50.03;;
13366;SDS011;6752;52.612;13.630;2023-02-15T02:50:31;123.57;;;72.35;;
13366;SDS011;6752;52.612;13.630;2023-02-15T02:55:35;103.85;;;53.08;;
13366;SDS011;6752;52.612;13.630;2023-02-15T03:00:40;99.60;;;51.53;;
13366;SDS011;6752;52.612;13.630;2023-02-15T03:05:41;90.93;;;47.42;;
13366;SDS011;6752;52.612;13.630;2023-02-15T03:10:43;92.47;;;44.83;;
13366;SDS011;6752;52.612;13.630;2023-02-15T03:15:46;85.68;;;45.22;;
13366;SDS011;6752;52.612;13.630;2023-02-15T03:21:07;91.20;;;45.33;;
13366;SDS011;6752;52.612;13.630;2023-02-15T03:26:09;90.12;;;59.75;;
13366;SDS011;6752;52.612;13.630;2023-02-15T03:31:11;96.70;;;52.67;;
13366;SDS011;6752;52.612;13.630;2023-02-15T03:36:16;105.25;;;54.08;;
13366;SDS011;6752;52.612;13.630;2023-02-15T03:41:20;105.40;;;53.20;;
13366;SDS011;6752;52.612;13.630;2023-02-15T03:51:37;97.90;;;47.72;;
13366;SDS011;6752;52.612;13.630;2023-02-15T03:56:40;101.22;;;49.22;;
13366;SDS011;6752;52.612;13.630;2023-02-15T04:07:08;97.85;;;49.30;;
13366;SDS011;6752;52.612;13.630;2023-02-15T04:12:10;108.15;;;53.33;;
13366;SDS011;6752;52.612;13.630;2023-02-15T04:17:13;96.03;;;49.75;;
13366;SDS011;6752;52.612;13.630;2023-02-15T04:22:16;94.75;;;47.65;;
13366;SDS011;6752;52.612;13.630;2023-02-15T04:27:37;92.55;;;45.55;;
13366;SDS011;6752;52.612;13.630;2023-02-15T04:32:39;86.55;;;43.83;;
13366;SDS011;6752;52.612;13.630;2023-02-15T04:37:42;107.70;;;51.22;;
13366;SDS011;6752;52.612;13.630;2023-02-15T04:42:44;105.12;;;53.13;;
13366;SDS011;6752;52.612;13.630;2023-02-15T05:02:52;141.12;;;61.70;;
13366;SDS011;6752;52.612;13.630;2023-02-15T05:07:54;126.65;;;74.03;;
13366;SDS011;6752;52.612;13.630;2023-02-15T05:12:57;131.10;;;61.58;;
13366;SDS011;6752;52.612;13.630;2023-02-15T05:18:02;133.68;;;61.40;;
13366;SDS011;6752;52.612;13.630;2023-02-15T05:23:05;121.82;;;55.80;;
13366;SDS011;6752;52.612;13.630;2023-02-15T05:28:08;127.47;;;56.78;;
13366;SDS011;6752;52.612;13.630;2023-02-15T05:33:21;124.30;;;59.38;;
13366;SDS011;6752;52.612;13.630;2023-02-15T05:38:23;141.32;;;58.63;;
13366;SDS011;6752;52.612;13.630;2023-02-15T05:43:27;127.20;;;59.35;;
13366;SDS011;6752;52.612;13.630;2023-02-15T05:48:29;131.48;;;60.22;;
13366;SDS011;6752;52.612;13.630;2023-02-15T05:53:32;162.02;;;63.92;;
13366;SDS011;6752;52.612;13.630;2023-02-15T05:58:36;115.28;;;71.90;;
13366;SDS011;6752;52.612;13.630;2023-02-15T06:03:36;108.37;;;55.80;;
13366;SDS011;6752;52.612;13.630;2023-02-15T06:08:39;120.30;;;59.80;;
13366;SDS011;6752;52.612;13.630;2023-02-15T06:13:41;123.28;;;58.60;;
13366;SDS011;6752;52.612;13.630;2023-02-15T06:18:44;143.45;;;63.22;;
13366;SDS011;6752;52.612;13.630;2023-02-15T06:23:46;204.75;;;69.37;;
13366;SDS011;6752;52.612;13.630;2023-02-15T06:28:48;196.10;;;66.50;;
13366;SDS011;6752;52.612;13.630;2023-02-15T06:33:51;316.88;;;77.75;;
13366;SDS011;6752;52.612;13.630;2023-02-15T06:38:53;158.73;;;78.22;;
13366;SDS011;6752;52.612;13.630;2023-02-15T06:43:55;313.35;;;73.43;;
13366;SDS011;6752;52.612;13.630;2023-02-15T06:48:58;550.58;;;95.22;;
13366;SDS011;6752;52.612;13.630;2023-02-15T06:54:00;682.65;;;99.45;;
13366;SDS011;6752;52.612;13.630;2023-02-15T06:59:03;376.92;;;74.75;;
13366;SDS011;6752;52.612;13.630;2023-02-15T07:04:05;701.00;;;117.60;;
13366;SDS011;6752;52.612;13.630;2023-02-15T07:09:07;205.57;;;67.30;;
13366;SDS011;6752;52.612;13.630;2023-02-15T07:14:10;482.30;;;89.55;;
13366;SDS011;6752;52.612;13.630;2023-02-15T07:19:12;501.87;;;83.87;;
13366;SDS011;6752;52.612;13.630;2023-02-15T07:24:15;634.33;;;95.82;;
13366;SDS011;6752;52.612;13.630;2023-02-15T07:29:17;1037.35;;;141.70;;
13366;SDS011;6752;52.612;13.630;2023-02-15T07:34:19;368.73;;;72.37;;
13366;SDS011;6752;52.612;13.630;2023-02-15T07:39:22;413.20;;;77.97;;
13366;SDS011;6752;52.612;13.630;2023-02-15T07:44:24;545.67;;;85.03;;
13366;SDS011;6752;52.612;13.630;2023-02-15T07:49:27;357.85;;;75.72;;
13366;SDS011;6752;52.612;13.630;2023-02-15T07:54:29;924.22;;;120.70;;
13366;SDS011;6752;52.612;13.630;2023-02-15T07:59:35;259.23;;;65.87;;
13366;SDS011;6752;52.612;13.630;2023-02-15T08:04:34;235.05;;;70.47;;
13366;SDS011;6752;52.612;13.630;2023-02-15T08:09:36;460.40;;;83.55;;
13366;SDS011;6752;52.612;13.630;2023-02-15T08:14:38;324.02;;;70.35;;
13366;SDS011;6752;52.612;13.630;2023-02-15T08:19:41;616.45;;;95.95;;
13366;SDS011;6752;52.612;13.630;2023-02-15T08:34:47;254.23;;;69.47;;
13366;SDS011;6752;52.612;13.630;2023-02-15T08:39:50;370.30;;;78.57;;
13366;SDS011;6752;52.612;13.630;2023-02-15T08:44:52;355.95;;;89.72;;
13366;SDS011;6752;52.612;13.630;2023-02-15T08:59:58;504.92;;;91.12;;
13366;SDS011;6752;52.612;13.630;2023-02-15T09:10:02;325.27;;;76.35;;
13366;SDS011;6752;52.612;13.630;2023-02-15T09:15:05;407.90;;;76.32;;
13366;SDS011;6752;52.612;13.630;2023-02-15T09:20:07;344.90;;;71.28;;
13366;SDS011;6752;52.612;13.630;2023-02-15T09:25:09;331.25;;;72.00;;
13366;SDS011;6752;52.612;13.630;2023-02-15T09:30:12;295.02;;;66.70;;
13366;SDS011;6752;52.612;13.630;2023-02-15T09:35:14;435.02;;;74.45;;
13366;SDS011;6752;52.612;13.630;2023-02-15T09:40:17;561.92;;;97.32;;
13366;SDS011;6752;52.612;13.630;2023-02-15T09:45:33;273.48;;;84.50;;
13366;SDS011;6752;52.612;13.630;2023-02-15T09:50:44;203.43;;;63.50;;
13366;SDS011;6752;52.612;13.630;2023-02-15T09:56:00;185.60;;;69.05;;
13366;SDS011;6752;52.612;13.630;2023-02-15T10:01:29;152.82;;;51.85;;
13366;SDS011;6752;52.612;13.630;2023-02-15T10:12:25;218.60;;;65.12;;
13366;SDS011;6752;52.612;13.630;2023-02-15T10:28:23;117.18;;;51.10;;
13366;SDS011;6752;52.612;13.630;2023-02-15T10:33:30;229.05;;;55.88;;
13366;SDS011;6752;52.612;13.630;2023-02-15T10:44:13;186.75;;;63.50;;
13366;SDS011;6752;52.612;13.630;2023-02-15T10:54:49;122.85;;;54.88;;
13366;SDS011;6752;52.612;13.630;2023-02-15T11:05:39;144.32;;;57.17;;
13366;SDS011;6752;52.612;13.630;2023-02-15T11:20:43;112.93;;;54.58;;
13366;SDS011;6752;52.612;13.630;2023-02-15T11:25:52;102.78;;;52.05;;
13366;SDS011;6752;52.612;13.630;2023-02-15T11:30:51;121.70;;;52.92;;
13366;SDS011;6752;52.612;13.630;2023-02-15T11:35:57;102.93;;;51.80;;
13366;SDS011;6752;52.612;13.630;2023-02-15T11:41:02;126.47;;;56.30;;
13366;SDS011;6752;52.612;13.630;2023-02-15T11:46:08;100.82;;;51.08;;
13366;SDS011;6752;52.612;13.630;2023-02-15T11:51:14;93.87;;;48.72;;
13366;SDS011;6752;52.612;13.630;2023-02-15T11:56:17;82.80;;;45.50;;
13366;SDS011;6752;52.612;13.630;2023-02-15T12:01:27;85.87;;;47.83;;
13366;SDS011;6752;52.612;13.630;2023-02-15T12:06:32;85.43;;;45.08;;
13366;SDS011;6752;52.612;13.630;2023-02-15T12:11:39;80.87;;;44.80;;
13366;SDS011;6752;52.612;13.630;2023-02-15T12:21:48;72.27;;;41.37;;
13366;SDS011;6752;52.612;13.630;2023-02-15T12:32:05;63.50;;;47.42;;
13366;SDS011;6752;52.612;13.630;2023-02-15T12:37:09;69.05;;;41.00;;
13366;SDS011;6752;52.612;13.630;2023-02-15T12:42:25;70.35;;;41.10;;
13366;SDS011;6752;52.612;13.630;2023-02-15T12:47:28;63.30;;;36.83;;
13366;SDS011;6752;52.612;13.630;2023-02-15T12:52:30;64.35;;;37.58;;
13366;SDS011;6752;52.612;13.630;2023-02-15T12:57:33;70.95;;;40.47;;
13366;SDS011;6752;52.612;13.630;2023-02-15T13:07:37;63.75;;;36.78;;
13366;SDS011;6752;52.612;13.630;2023-02-15T13:12:39;55.73;;;41.33;;
13366;SDS011;6752;52.612;13.630;2023-02-15T13:17:42;63.15;;;34.20;;
13366;SDS011;6752;52.612;13.630;2023-02-15T13:22:44;52.30;;;39.47;;
13366;SDS011;6752;52.612;13.630;2023-02-15T13:27:48;48.70;;;32.53;;
13366;SDS011;6752;52.612;13.630;2023-02-15T13:32:49;47.20;;;37.10;;
13366;SDS011;6752;52.612;13.630;2023-02-15T13:43:02;53.37;;;32.63;;
13366;SDS011;6752;52.612;13.630;2023-02-15T13:48:06;51.50;;;32.38;;
13366;SDS011;6752;52.612;13.630;2023-02-15T13:58:39;51.13;;;34.38;;
13366;SDS011;6752;52.612;13.630;2023-02-15T14:04:13;51.60;;;34.15;;
13366;SDS011;6752;52.612;13.630;2023-02-15T14:09:20;46.88;;;29.30;;
13366;SDS011;6752;52.612;13.630;2023-02-15T14:19:43;48.85;;;30.92;;
13366;SDS011;6752;52.612;13.630;2023-02-15T14:24:56;42.13;;;26.05;;
13366;SDS011;6752;52.612;13.630;2023-02-15T14:30:15;41.33;;;30.90;;
13366;SDS011;6752;52.612;13.630;2023-02-15T14:35:17;44.65;;;28.90;;
13366;SDS011;6752;52.612;13.630;2023-02-15T14:56:45;43.87;;;27.60;;
13366;SDS011;6752;52.612;13.630;2023-02-15T15:01:51;44.78;;;29.33;;
13366;SDS011;6752;52.612;13.630;2023-02-15T15:07:22;47.22;;;29.10;;
13366;SDS011;6752;52.612;13.630;2023-02-15T15:12:14;39.27;;;30.23;;
13366;SDS011;6752;52.612;13.630;2023-02-15T15:22:35;44.95;;;27.33;;
13366;SDS011;6752;52.612;13.630;2023-02-15T15:27:39;46.75;;;27.67;;
13366;SDS011;6752;52.612;13.630;2023-02-15T15:32:43;39.35;;;26.20;;
13366;SDS011;6752;52.612;13.630;2023-02-15T15:37:51;38.00;;;24.17;;
13366;SDS011;6752;52.612;13.630;2023-02-15T15:48:37;40.97;;;24.92;;
13366;SDS011;6752;52.612;13.630;2023-02-15T15:53:29;35.95;;;24.17;;
13366;SDS011;6752;52.612;13.630;2023-02-15T15:58:31;37.65;;;24.87;;
13366;SDS011;6752;52.612;13.630;2023-02-15T16:03:33;35.45;;;23.27;;
13366;SDS011;6752;52.612;13.630;2023-02-15T16:08:37;41.35;;;25.42;;
13366;SDS011;6752;52.612;13.630;2023-02-15T16:13:39;45.78;;;28.48;;
13366;SDS011;6752;52.612;13.630;2023-02-15T16:18:41;40.08;;;24.80;;
13366;SDS011;6752;52.612;13.630;2023-02-15T16:28:58;32.67;;;21.35;;
13366;SDS011;6752;52.612;13.630;2023-02-15T16:34:07;32.70;;;20.52;;
13366;SDS011;6752;52.612;13.630;2023-02-15T16:39:06;33.88;;;21.27;;
13366;SDS011;6752;52.612;13.630;2023-02-15T16:44:12;31.70;;;20.98;;
13366;SDS011;6752;52.612;13.630;2023-02-15T16:49:20;33.15;;;20.65;;
13366;SDS011;6752;52.612;13.630;2023-02-15T16:54:22;33.72;;;22.27;;
13366;SDS011;6752;52.612;13.630;2023-02-15T17:04:38;29.63;;;20.42;;
13366;SDS011;6752;52.612;13.630;2023-02-15T17:10:16;34.90;;;21.30;;
13366;SDS011;6752;52.612;13.630;2023-02-15T17:14:58;33.20;;;21.33;;
13366;SDS011;6752;52.612;13.630;2023-02-15T17:20:00;36.03;;;22.10;;
13366;SDS011;6752;52.612;13.630;2023-02-15T17:25:03;31.08;;;20.23;;
13366;SDS011;6752;52.612;13.630;2023-02-15T17:30:15;34.20;;;26.00;;
13366;SDS011;6752;52.612;13.630;2023-02-15T17:35:25;35.33;;;21.73;;
13366;SDS011;6752;52.612;13.630;2023-02-15T17:40:31;31.62;;;20.75;;
13366;SDS011;6752;52.612;13.630;2023-02-15T17:45:33;24.50;;;19.67;;
13366;SDS011;6752;52.612;13.630;2023-02-15T17:50:37;24.23;;;16.05;;
13366;SDS011;6752;52.612;13.630;2023-02-15T17:55:39;24.93;;;18.97;;
13366;SDS011;6752;52.612;13.630;2023-02-15T18:06:02;25.35;;;17.05;;
13366;SDS011;6752;52.612;13.630;2023-02-15T18:11:22;31.27;;;19.42;;
13366;SDS011;6752;52.612;13.630;2023-02-15T18:16:41;41.72;;;23.38;;
13366;SDS011;6752;52.612;13.630;2023-02-15T18:21:42;43.20;;;23.40;;
13366;SDS011;6752;52.612;13.630;2023-02-15T18:26:45;30.85;;;20.60;;
13366;SDS011;6752;52.612;13.630;2023-02-15T18:31:48;28.20;;;18.77;;
13366;SDS011;6752;52.612;13.630;2023-02-15T18:36:49;30.25;;;19.50;;
13366;SDS011;6752;52.612;13.630;2023-02-15T18:41:52;36.67;;;22.35;;
13366;SDS011;6752;52.612;13.630;2023-02-15T18:46:54;36.25;;;23.40;;
13366;SDS011;6752;52.612;13.630;2023-02-15T18:51:56;32.33;;;21.37;;
13366;SDS011;6752;52.612;13.630;2023-02-15T18:57:02;31.95;;;20.45;;
13366;SDS011;6752;52.612;13.630;2023-02-15T19:02:01;30.65;;;19.67;;
13366;SDS011;6752;52.612;13.630;2023-02-15T19:07:04;33.15;;;21.87;;
13366;SDS011;6752;52.612;13.630;2023-02-15T19:12:07;37.85;;;22.25;;
13366;SDS011;6752;52.612;13.630;2023-02-15T19:17:12;37.08;;;22.77;;
13366;SDS011;6752;52.612;13.630;2023-02-15T19:22:14;35.75;;;23.35;;
13366;SDS011;6752;52.612;13.630;2023-02-15T19:27:20;34.50;;;21.65;;
13366;SDS011;6752;52.612;13.630;2023-02-15T19:32:21;31.17;;;22.62;;
13366;SDS011;6752;52.612;13.630;2023-02-15T19:37:36;35.58;;;23.50;;
13366;SDS011;6752;52.612;13.630;2023-02-15T19:42:38;37.25;;;22.20;;
13366;SDS011;6752;52.612;13.630;2023-02-15T19:47:40;33.88;;;22.58;;
13366;SDS011;6752;52.612;13.630;2023-02-15T19:52:43;34.80;;;22.60;;
13366;SDS011;6752;52.612;13.630;2023-02-15T19:57:45;42.00;;;24.95;;
13366;SDS011;6752;52.612;13.630;2023-02-15T20:02:51;50.95;;;29.40;;
13366;SDS011;6752;52.612;13.630;2023-02-15T20:07:53;44.13;;;27.25;;
13366;SDS011;6752;52.612;13.630;2023-02-15T20:12:55;47.75;;;28.35;;
13366;SDS011;6752;52.612;13.630;2023-02-15T20:17:58;50.60;;;30.02;;
13366;SDS011;6752;52.612;13.630;2023-02-15T20:23:00;39.95;;;25.52;;
13366;SDS011;6752;52.612;13.630;2023-02-15T20:28:02;42.90;;;26.40;;
13366;SDS011;6752;52.612;13.630;2023-02-15T20:33:05;41.05;;;25.95;;
13366;SDS011;6752;52.612;13.630;2023-02-15T20:38:11;42.47;;;25.92;;
13366;SDS011;6752;52.612;13.630;2023-02-15T20:43:10;43.80;;;27.08;;
13366;SDS011;6752;52.612;13.630;2023-02-15T20:48:12;38.33;;;24.70;;
13366;SDS011;6752;52.612;13.630;2023-02-15T20:53:14;50.47;;;27.92;;
13366;SDS011;6752;52.612;13.630;2023-02-15T20:58:20;45.70;;;28.98;;
13366;SDS011;6752;52.612;13.630;2023-02-15T21:08:26;47.15;;;29.17;;
13366;SDS011;6752;52.612;13.630;2023-02-15T21:18:31;48.40;;;29.40;;
13366;SDS011;6752;52.612;13.630;2023-02-15T21:23:34;50.90;;;30.77;;
13366;SDS011;6752;52.612;13.630;2023-02-15T21:28:38;53.13;;;33.75;;
13366;SDS011;6752;52.612;13.630;2023-02-15T21:33:41;48.47;;;29.30;;
13366;SDS011;6752;52.612;13.630;2023-02-15T21:38:45;49.72;;;29.65;;
13366;SDS011;6752;52.612;13.630;2023-02-15T21:43:47;50.15;;;32.60;;
13366;SDS011;6752;52.612;13.630;2023-02-15T21:49:07;45.67;;;28.50;;
13366;SDS011;6752;52.612;13.630;2023-02-15T21:54:13;46.10;;;28.30;;
13366;SDS011;6752;52.612;13.630;2023-02-15T21:59:17;37.25;;;29.05;;
13366;SDS011;6752;52.612;13.630;2023-02-15T22:04:29;41.75;;;27.20;;
13366;SDS011;6752;52.612;13.630;2023-02-15T22:09:27;49.97;;;31.33;;
13366;SDS011;6752;52.612;13.630;2023-02-15T22:14:39;56.83;;;34.03;;
13366;SDS011;6752;52.612;13.630;2023-02-15T22:19:41;64.60;;;35.00;;
13366;SDS011;6752;52.612;13.630;2023-02-15T22:24:43;57.50;;;34.03;;
13366;SDS011;6752;52.612;13.630;2023-02-15T22:29:45;51.83;;;37.90;;
13366;SDS011;6752;52.612;13.630;2023-02-15T22:34:48;47.65;;;30.77;;
13366;SDS011;6752;52.612;13.630;2023-02-15T22:39:50;59.15;;;34.30;;
13366;SDS011;6752;52.612;13.630;2023-02-15T22:44:53;54.22;;;33.60;;
13366;SDS011;6752;52.612;13.630;2023-02-15T22:49:55;55.10;;;33.58;;
13366;SDS011;6752;52.612;13.630;2023-02-15T22:54:57;47.72;;;35.33;;
13366;SDS011;6752;52.612;13.630;2023-02-15T23:00:00;46.77;;;34.10;;
13366;SDS011;6752;52.612;13.630;2023-02-15T23:05:02;48.80;;;28.60;;
13366;SDS011;6752;52.612;13.630;2023-02-15T23:10:05;46.67;;;28.40;;
13366;SDS011;6752;52.612;13.630;2023-02-15T23:15:10;39.58;;;27.35;;
13366;SDS011;6752;52.612;13.630;2023-02-15T23:20:15;43.40;;;28.15;;
13366;SDS011;6752;52.612;13.630;2023-02-15T23:25:18;41.42;;;25.15;;
13366;SDS011;6752;52.612;13.630;2023-02-15T23:35:22;48.00;;;30.33;;
13366;SDS011;6752;52.612;13.630;2023-02-15T23:40:24;50.80;;;31.00;;
13366;SDS011;6752;52.612;13.630;2023-02-15T23:55:58;47.78;;;29.95;;
